Villa Verona, California
Current Conditions -  °F | °C
As of 3:53 PM on Monday 20 Oct 2014 (Local Time) from KOVE Reporting Station
Light Rain Light Rain  
Wind Chill: 65°   Ceiling: 6000
Heat Index: 65°   Visibility: 10mi
Dew Point: 61°   Wind: 14mph
Humidity: 87%   Direction: 140°SE
Pressure: 29.9"   Gusts: NA
Location:  39.5324°N, 121.648°W
Report Text: KOVE 202253Z AUTO 14012KT 10SM -RA OVC060 18/16 A2990 RMK AO2 SLP126 P0006 T01830161 $
Loading
Personal Weather Stations






























Interactive Weather Map
Tropical Storm Tracking
New forecast layout! Learn more

10-Day Weather Forecast

Advertisements
Track Severe Weather on mobile